Central Cty, Kentucky
Current Conditions -  °F | °C
As of 1:35 AM on Wednesday 26 Nov 2014 (Local Time) from K2I0 Reporting Station
Haze Haze  
Wind Chill: 27°   Ceiling: Unl
Heat Index: 27°   Visibility: 4mi
Dew Point: 27°   Wind: 3mph
Humidity: 100%   Direction: 360°N
Pressure: 30.16"   Gusts: NA
Location:  37.3137°N, 87.1024°W
Report Text: K2I0 260735Z AUTO 36003KT 4SM BR CLR M03/M03 A3016 RMK AO2 T10281028
Loading
Personal Weather Stations






























Interactive Weather Map New forecast layout! Learn more

10-Day Weather Forecast

Advertisements
Track Severe Weather on mobile